Terminal Aerodrome Forecast
Issued by NWS Central Illinois

Home | Current Version | Previous Version | Text Only | Print | Product List | Glossary On
Versions: 1 2 3 4 5 6 7 8 9 10 11 12 13 14 15 16 17 18
650
FTUS43 KILX 311602 AAB
TAFSPI
TAF AMD
KSPI 311602Z 3116/0112 VRB06KT 3SM SHRA VCTS BKN035CB
     FM311700 16008KT P6SM VCTS SCT060CB BKN150
     FM010200 15006KT P6SM VCSH BKN060
     FM010800 16005KT P6SM SCT050 BKN100 PROB30 0108/0112 6SM TSRA
      OVC060CB=

USA.gov is the U.S. government's official web portal to all federal, state and local government web resources and services.